createdAt,value
2018-05-21T00:00:59.262Z,0
2018-05-21T00:02:08.733Z,0
2018-05-21T00:03:18.451Z,0
2018-05-21T00:04:27.709Z,0
2018-05-21T00:05:37.390Z,0
2018-05-21T00:06:46.863Z,0
2018-05-21T00:07:55.777Z,0
2018-05-21T00:09:05.464Z,0
2018-05-21T00:10:15.136Z,0
2018-05-21T00:11:24.922Z,0
2018-05-21T00:12:33.829Z,0
2018-05-21T00:13:43.057Z,0
2018-05-21T00:14:52.253Z,0
2018-05-21T00:16:01.247Z,0
2018-05-21T00:17:10.959Z,0
2018-05-21T00:18:20.643Z,0
2018-05-21T00:19:29.860Z,0
2018-05-21T00:20:39.279Z,0
2018-05-21T00:21:48.716Z,0
2018-05-21T00:22:58.149Z,0
2018-05-21T00:24:07.572Z,0
2018-05-21T00:25:17.280Z,0
2018-05-21T00:26:26.460Z,0
2018-05-21T00:27:35.890Z,0
2018-05-21T00:28:45.582Z,0
2018-05-21T00:29:55.819Z,0
2018-05-21T00:31:04.983Z,0
2018-05-21T00:32:14.461Z,0
2018-05-21T00:33:23.945Z,0
2018-05-21T00:34:33.640Z,0
2018-05-21T00:35:43.083Z,0
2018-05-21T00:36:52.760Z,0
2018-05-21T00:38:01.959Z,0
2018-05-21T00:39:11.457Z,0
2018-05-21T00:40:21.613Z,0
2018-05-21T00:41:30.777Z,0
2018-05-21T00:42:40.204Z,0
2018-05-21T00:43:49.633Z,0
2018-05-21T00:44:59.349Z,0
2018-05-21T00:46:09.068Z,0
2018-05-21T00:47:18.226Z,0
2018-05-21T00:48:27.137Z,0
2018-05-21T00:49:36.322Z,0
2018-05-21T00:50:45.483Z,0
2018-05-21T00:51:54.663Z,0
2018-05-21T00:53:04.093Z,0
2018-05-21T00:54:13.501Z,0
2018-05-21T00:55:22.673Z,0
2018-05-21T00:56:32.656Z,0
2018-05-21T00:57:42.376Z,0
2018-05-21T00:58:51.544Z,0
2018-05-21T01:00:00.729Z,0
2018-05-21T01:01:10.172Z,0
2018-05-21T01:02:19.640Z,0
2018-05-21T01:03:28.838Z,0
2018-05-21T01:04:38.254Z,0
2018-05-21T01:05:47.694Z,0
2018-05-21T01:06:57.383Z,0
2018-05-21T01:08:06.822Z,0
2018-05-21T01:09:16.240Z,0
2018-05-21T01:10:25.931Z,0
2018-05-21T01:11:35.349Z,0
2018-05-21T01:12:45.021Z,0
2018-05-21T01:13:54.730Z,0
2018-05-21T01:15:03.608Z,0
2018-05-21T01:16:13.283Z,0
2018-05-21T01:17:22.766Z,0
2018-05-21T01:18:32.752Z,0
2018-05-21T01:19:42.204Z,0
2018-05-21T01:20:51.897Z,0
2018-05-21T01:22:01.375Z,0
2018-05-21T01:23:11.038Z,0
2018-05-21T01:24:20.206Z,0
2018-05-21T01:25:29.898Z,0
2018-05-21T01:26:39.342Z,0
2018-05-21T01:27:48.530Z,0
2018-05-21T01:28:57.685Z,0
2018-05-21T01:30:07.134Z,0
2018-05-21T01:31:16.071Z,0
2018-05-21T01:32:26.025Z,0
2018-05-21T01:33:35.210Z,0
2018-05-21T01:34:44.400Z,0
2018-05-21T01:35:54.105Z,0
2018-05-21T01:37:03.549Z,0
2018-05-21T01:38:12.480Z,0
2018-05-21T01:39:21.923Z,0
2018-05-21T01:40:31.123Z,0
2018-05-21T01:41:40.858Z,0
2018-05-21T01:42:50.308Z,0
2018-05-21T01:43:59.498Z,0
2018-05-21T01:45:08.675Z,0
2018-05-21T01:46:18.118Z,0
2018-05-21T01:47:27.315Z,0
2018-05-21T01:48:36.752Z,0
2018-05-21T01:49:46.436Z,0
2018-05-21T01:50:55.822Z,0
2018-05-21T01:52:05.873Z,0
2018-05-21T01:53:15.045Z,0
2018-05-21T01:54:24.733Z,0
2018-05-21T01:55:34.426Z,0
2018-05-21T01:56:43.587Z,0
2018-05-21T01:57:52.793Z,0
2018-05-21T01:59:02.294Z,0
2018-05-21T02:00:11.995Z,0
2018-05-21T02:01:21.953Z,0
2018-05-21T02:02:31.164Z,0
2018-05-21T02:03:40.085Z,0
2018-05-21T02:04:49.558Z,0
2018-05-21T02:05:59.009Z,0
2018-05-21T02:07:08.219Z,0
2018-05-21T02:08:17.787Z,0
2018-05-21T02:09:27.351Z,0
2018-05-21T02:10:37.042Z,0
2018-05-21T02:11:46.249Z,0
2018-05-21T02:12:55.943Z,0
2018-05-21T02:14:05.393Z,0
2018-05-21T02:15:14.419Z,0
2018-05-21T02:16:23.613Z,0
2018-05-21T02:17:33.040Z,0
2018-05-21T02:18:42.186Z,0
2018-05-21T02:19:51.959Z,0
2018-05-21T02:21:01.963Z,0
2018-05-21T02:22:11.938Z,0
2018-05-21T02:23:21.664Z,0
2018-05-21T02:24:30.821Z,0
2018-05-21T02:25:40.017Z,0
2018-05-21T02:26:49.219Z,0
2018-05-21T02:27:58.956Z,0
2018-05-21T02:29:08.419Z,0
2018-05-21T02:30:18.118Z,0
2018-05-21T02:31:27.300Z,0
2018-05-21T02:32:36.798Z,0
2018-05-21T02:33:46.233Z,0
2018-05-21T02:34:55.676Z,0
2018-05-21T02:36:04.896Z,0
2018-05-21T02:37:14.342Z,0
2018-05-21T02:38:23.751Z,0
2018-05-21T02:39:33.449Z,0
2018-05-21T02:40:43.134Z,0
2018-05-21T02:41:52.840Z,0
2018-05-21T02:43:02.016Z,0
2018-05-21T02:44:11.227Z,0
2018-05-21T02:45:20.968Z,0
2018-05-21T02:46:30.397Z,0
2018-05-21T02:47:40.092Z,0
2018-05-21T02:48:49.292Z,0
2018-05-21T02:49:58.191Z,0
2018-05-21T02:51:07.637Z,0
2018-05-21T02:52:17.128Z,0
2018-05-21T02:53:27.247Z,0
2018-05-21T02:54:36.953Z,0
2018-05-21T02:55:46.369Z,0
2018-05-21T02:56:56.040Z,0
2018-05-21T02:58:05.493Z,0
2018-05-21T02:59:14.959Z,0
2018-05-21T03:00:24.658Z,0
2018-05-21T03:01:33.847Z,0
2018-05-21T03:02:42.772Z,0
2018-05-21T03:03:51.995Z,0
2018-05-21T03:05:01.452Z,0
2018-05-21T03:06:10.896Z,0
2018-05-21T03:07:20.593Z,0
2018-05-21T03:08:29.785Z,0
2018-05-21T03:09:39.259Z,0
2018-05-21T03:10:48.690Z,0
2018-05-21T03:11:57.865Z,0
2018-05-21T03:13:07.340Z,0
2018-05-21T03:14:16.812Z,0
2018-05-21T03:15:26.233Z,0
2018-05-21T03:16:35.667Z,0
2018-05-21T03:17:45.103Z,0
2018-05-21T03:18:54.046Z,0
2018-05-21T03:20:03.505Z,0
2018-05-21T03:21:12.660Z,0
2018-05-21T03:22:21.842Z,0
2018-05-21T03:23:31.271Z,0
2018-05-21T03:24:40.717Z,0
2018-05-21T03:25:50.168Z,0
2018-05-21T03:26:59.376Z,0
2018-05-21T03:28:08.571Z,0
2018-05-21T03:29:17.564Z,0
2018-05-21T03:30:27.289Z,0
2018-05-21T03:31:37.010Z,0
2018-05-21T03:32:46.978Z,0
2018-05-21T03:33:56.731Z,0
2018-05-21T03:35:06.165Z,0
2018-05-21T03:36:15.326Z,0
2018-05-21T03:37:24.747Z,0
2018-05-21T03:38:34.168Z,0
2018-05-21T03:39:44.141Z,0
2018-05-21T03:40:54.043Z,0
2018-05-21T03:42:03.467Z,0
2018-05-21T03:43:13.201Z,0
2018-05-21T03:44:22.630Z,0
2018-05-21T03:45:31.878Z,0
2018-05-21T03:46:41.289Z,4
2018-05-21T03:47:50.209Z,4
2018-05-21T03:48:59.926Z,0
2018-05-21T03:50:09.623Z,0
2018-05-21T03:51:19.039Z,0
2018-05-21T03:52:28.244Z,0
2018-05-21T03:53:37.935Z,0
2018-05-21T03:54:47.364Z,0
2018-05-21T03:55:57.069Z,4
2018-05-21T03:57:06.542Z,4
2018-05-21T03:58:15.970Z,0
2018-05-21T03:59:25.400Z,0
2018-05-21T04:00:34.859Z,0
2018-05-21T04:01:44.316Z,0
2018-05-21T04:02:53.765Z,0
2018-05-21T04:04:02.710Z,0
2018-05-21T04:05:11.908Z,0
2018-05-21T04:06:21.118Z,0
2018-05-21T04:07:30.308Z,0
2018-05-21T04:08:39.487Z,0
2018-05-21T04:09:48.692Z,0
2018-05-21T04:10:58.120Z,0
2018-05-21T04:12:07.343Z,0
2018-05-21T04:13:17.093Z,0
2018-05-21T04:14:27.137Z,0
2018-05-21T04:15:36.576Z,0
2018-05-21T04:16:45.498Z,0
2018-05-21T04:17:54.416Z,0
2018-05-21T04:19:03.872Z,0
2018-05-21T04:20:13.790Z,0
2018-05-21T04:21:23.214Z,4
2018-05-21T04:22:32.910Z,0
2018-05-21T04:23:42.094Z,0
2018-05-21T04:24:52.046Z,4
2018-05-21T04:26:01.482Z,0
2018-05-21T04:27:10.907Z,0
2018-05-21T04:28:20.617Z,0
2018-05-21T04:29:30.121Z,0
2018-05-21T04:30:39.324Z,0
2018-05-21T04:31:48.513Z,0
2018-05-21T04:32:58.272Z,0
2018-05-21T04:34:07.252Z,0
2018-05-21T04:35:16.943Z,0
2018-05-21T04:36:26.858Z,0
2018-05-21T04:37:36.396Z,0
2018-05-21T04:38:45.840Z,4
2018-05-21T04:39:54.994Z,4
2018-05-21T04:41:03.958Z,4
2018-05-21T04:42:13.644Z,0
2018-05-21T04:43:23.059Z,0
2018-05-21T04:44:32.475Z,0
2018-05-21T04:45:41.938Z,0
2018-05-21T04:46:51.631Z,0
2018-05-21T04:48:01.076Z,0
2018-05-21T04:49:10.797Z,0
2018-05-21T04:50:19.955Z,0
2018-05-21T04:51:29.382Z,4
2018-05-21T04:52:38.545Z,4
2018-05-21T04:53:48.214Z,4
2018-05-21T04:54:57.916Z,4
2018-05-21T04:56:07.577Z,4
2018-05-21T04:57:16.499Z,0
2018-05-21T04:58:25.400Z,0
2018-05-21T04:59:34.310Z,0
2018-05-21T05:00:44.523Z,0
2018-05-21T05:01:53.967Z,0
2018-05-21T05:03:02.881Z,0
2018-05-21T05:04:12.585Z,4
2018-05-21T05:05:21.777Z,4
2018-05-21T05:06:31.220Z,4
2018-05-21T05:07:40.670Z,4
2018-05-21T05:08:50.363Z,0
2018-05-21T05:10:00.052Z,4
2018-05-21T05:11:09.255Z,4
2018-05-21T05:12:19.211Z,4
2018-05-21T05:13:28.900Z,4
2018-05-21T05:14:37.821Z,4
2018-05-21T05:15:47.248Z,4
2018-05-21T05:16:57.190Z,4
2018-05-21T05:18:06.342Z,4
2018-05-21T05:19:16.330Z,4
2018-05-21T05:20:25.255Z,4
2018-05-21T05:21:34.694Z,8
2018-05-21T05:22:44.208Z,8
2018-05-21T05:23:53.897Z,8
2018-05-21T05:25:03.834Z,4
2018-05-21T05:26:13.543Z,4
2018-05-21T05:27:23.063Z,4
2018-05-21T05:28:32.509Z,8
2018-05-21T05:29:41.920Z,8
2018-05-21T05:30:51.693Z,8
2018-05-21T05:32:00.549Z,8
2018-05-21T05:33:09.748Z,8
2018-05-21T05:34:19.445Z,8
2018-05-21T05:35:29.137Z,8
2018-05-21T05:36:38.302Z,8
2018-05-21T05:37:47.502Z,12
2018-05-21T05:38:57.081Z,12
2018-05-21T05:40:06.240Z,12
2018-05-21T05:41:15.405Z,16
2018-05-21T05:42:24.602Z,20
2018-05-21T05:43:34.007Z,12
2018-05-21T05:44:43.204Z,16
2018-05-21T05:45:52.695Z,16
2018-05-21T05:47:02.472Z,8
2018-05-21T05:48:11.469Z,8
2018-05-21T05:49:21.410Z,8
2018-05-21T05:50:30.860Z,8
2018-05-21T05:51:40.543Z,8
2018-05-21T05:52:49.961Z,8
2018-05-21T05:53:59.677Z,8
2018-05-21T05:55:08.878Z,8
2018-05-21T05:56:18.553Z,12
2018-05-21T05:57:27.493Z,8
2018-05-21T05:58:36.717Z,8
2018-05-21T05:59:46.142Z,8
2018-05-21T06:00:55.821Z,8
2018-05-21T06:02:05.813Z,8
2018-05-21T06:03:14.979Z,8
2018-05-21T06:04:24.668Z,8
2018-05-21T06:05:33.831Z,12
2018-05-21T06:06:43.528Z,8
2018-05-21T06:07:53.531Z,12
2018-05-21T06:09:03.222Z,8
2018-05-21T06:10:13.155Z,8
2018-05-21T06:11:22.688Z,8
2018-05-21T06:12:31.877Z,8
2018-05-21T06:13:41.388Z,8
2018-05-21T06:14:50.759Z,8
2018-05-21T06:15:59.699Z,12
2018-05-21T06:17:08.678Z,12
2018-05-21T06:18:18.667Z,12
2018-05-21T06:19:27.966Z,12
2018-05-21T06:20:37.417Z,12
2018-05-21T06:21:46.598Z,28
2018-05-21T06:22:55.800Z,28
2018-05-21T06:24:04.493Z,28
2018-05-21T06:25:13.937Z,12
2018-05-21T06:26:23.101Z,16
2018-05-21T06:27:32.518Z,20
2018-05-21T06:28:41.672Z,12
2018-05-21T06:29:50.864Z,12
2018-05-21T06:30:59.760Z,8
2018-05-21T06:32:08.726Z,12
2018-05-21T06:33:18.155Z,12
2018-05-21T06:34:27.205Z,8
2018-05-21T06:35:36.642Z,8
2018-05-21T06:36:46.131Z,12
2018-05-21T06:37:55.309Z,12
2018-05-21T06:39:05.087Z,16
2018-05-21T06:40:14.289Z,20
2018-05-21T06:41:23.966Z,24
2018-05-21T06:42:33.143Z,24
2018-05-21T06:43:42.888Z,24
2018-05-21T06:44:52.614Z,24
2018-05-21T06:46:02.065Z,28
2018-05-21T06:47:11.023Z,28
2018-05-21T06:48:20.468Z,28
2018-05-21T06:49:29.711Z,28
2018-05-21T06:50:39.389Z,32
2018-05-21T06:51:48.566Z,28
2018-05-21T06:52:58.017Z,32
2018-05-21T06:54:07.199Z,32
2018-05-21T06:55:16.623Z,32
2018-05-21T06:56:26.899Z,32
2018-05-21T06:57:36.624Z,32
2018-05-21T06:58:45.793Z,20
2018-05-21T06:59:55.432Z,16
2018-05-21T07:01:04.648Z,12
2018-05-21T07:02:13.833Z,8
2018-05-21T07:03:23.335Z,8
2018-05-21T07:04:32.827Z,8
2018-05-21T07:05:42.564Z,8
2018-05-21T07:06:52.825Z,8
2018-05-21T07:08:02.446Z,8
2018-05-21T07:09:11.978Z,8
2018-05-21T07:10:21.421Z,8
2018-05-21T07:11:30.847Z,8
2018-05-21T07:12:40.363Z,8
2018-05-21T07:13:50.286Z,8
2018-05-21T07:14:59.752Z,8
2018-05-21T07:16:09.691Z,12
2018-05-21T07:17:19.638Z,12
2018-05-21T07:18:29.691Z,20
2018-05-21T07:19:38.786Z,28
2018-05-21T07:20:49.276Z,28
2018-05-21T07:21:58.709Z,20
2018-05-21T07:23:08.879Z,16
2018-05-21T07:24:18.061Z,24
2018-05-21T07:25:27.814Z,24
2018-05-21T07:26:37.613Z,16
2018-05-21T07:27:46.814Z,16
2018-05-21T07:28:56.488Z,16
2018-05-21T07:30:06.184Z,12
2018-05-21T07:31:15.862Z,8
2018-05-21T07:32:25.286Z,8
2018-05-21T07:33:34.492Z,8
2018-05-21T07:34:44.202Z,12
2018-05-21T07:35:53.350Z,12
2018-05-21T07:37:02.826Z,8
2018-05-21T07:38:12.001Z,8
2018-05-21T07:39:20.927Z,12
2018-05-21T07:40:30.113Z,12
2018-05-21T07:41:39.284Z,16
2018-05-21T07:42:48.455Z,24
2018-05-21T07:43:57.886Z,32
2018-05-21T07:45:06.802Z,28
2018-05-21T07:46:15.965Z,32
2018-05-21T07:47:24.895Z,24
2018-05-21T07:48:34.372Z,24
2018-05-21T07:49:44.044Z,24
2018-05-21T07:50:53.735Z,24
2018-05-21T07:52:02.927Z,20
2018-05-21T07:53:12.410Z,28
2018-05-21T07:54:21.899Z,28
2018-05-21T07:55:31.428Z,28
2018-05-21T07:56:40.756Z,32
2018-05-21T07:57:50.449Z,36
2018-05-21T07:59:00.163Z,36
2018-05-21T08:00:09.895Z,36
2018-05-21T08:01:19.584Z,44
2018-05-21T08:02:28.524Z,36
2018-05-21T08:03:37.438Z,40
2018-05-21T08:04:46.378Z,40
2018-05-21T08:05:55.908Z,40
2018-05-21T08:07:05.620Z,44
2018-05-21T08:08:15.362Z,44
2018-05-21T08:09:24.895Z,44
2018-05-21T08:10:34.134Z,24
2018-05-21T08:11:43.885Z,44
2018-05-21T08:12:53.868Z,44
2018-05-21T08:14:03.603Z,36
2018-05-21T08:15:12.618Z,24
2018-05-21T08:16:21.638Z,32
2018-05-21T08:17:31.426Z,28
2018-05-21T08:18:41.198Z,44
2018-05-21T08:19:50.904Z,44
2018-05-21T08:21:00.104Z,32
2018-05-21T08:22:09.080Z,44
2018-05-21T08:23:18.943Z,44
2018-05-21T08:24:28.390Z,40
2018-05-21T08:25:38.154Z,48
2018-05-21T08:26:47.804Z,44
2018-05-21T08:27:57.125Z,44
2018-05-21T08:29:06.820Z,44
2018-05-21T08:30:16.766Z,48
2018-05-21T08:31:26.232Z,44
2018-05-21T08:32:35.936Z,44
2018-05-21T08:33:45.681Z,44
2018-05-21T08:34:54.387Z,44
2018-05-21T08:36:03.819Z,44
2018-05-21T08:37:13.006Z,44
2018-05-21T08:38:22.768Z,40
2018-05-21T08:39:31.938Z,40
2018-05-21T08:40:40.882Z,44
2018-05-21T08:41:50.387Z,36
2018-05-21T08:42:59.811Z,36
2018-05-21T08:44:09.544Z,44
2018-05-21T08:45:19.220Z,36
2018-05-21T08:46:28.194Z,44
2018-05-21T08:47:38.179Z,44
2018-05-21T08:48:48.859Z,44
2018-05-21T08:49:59.542Z,40
2018-05-21T08:51:09.450Z,36
2018-05-21T08:52:19.185Z,40
2018-05-21T08:53:28.906Z,44
2018-05-21T08:54:38.185Z,44
2018-05-21T08:55:47.126Z,44
2018-05-21T08:56:56.568Z,44
2018-05-21T08:58:05.517Z,44
2018-05-21T08:59:15.149Z,48
2018-05-21T09:00:24.697Z,40
2018-05-21T09:01:34.235Z,44
2018-05-21T09:02:43.420Z,44
2018-05-21T09:03:52.872Z,40
2018-05-21T09:05:02.339Z,44
2018-05-21T09:06:11.769Z,44
2018-05-21T09:07:21.731Z,44
2018-05-21T09:08:31.159Z,44
2018-05-21T09:09:40.879Z,44
2018-05-21T09:10:49.795Z,44
2018-05-21T09:11:59.500Z,44
2018-05-21T09:13:09.468Z,28
2018-05-21T09:14:18.892Z,20
2018-05-21T09:15:28.578Z,24
2018-05-21T09:16:38.254Z,20
2018-05-21T09:17:48.050Z,20
2018-05-21T09:18:58.014Z,36
2018-05-21T09:20:07.444Z,36
2018-05-21T09:21:17.318Z,20
2018-05-21T09:22:26.501Z,16
2018-05-21T09:23:35.922Z,12
2018-05-21T09:24:45.621Z,16
2018-05-21T09:25:54.822Z,16
2018-05-21T09:27:04.027Z,12
2018-05-21T09:28:13.744Z,16
2018-05-21T09:29:22.946Z,16
2018-05-21T09:30:32.396Z,12
2018-05-21T09:31:42.128Z,20
2018-05-21T09:32:51.823Z,24
2018-05-21T09:34:01.590Z,20
2018-05-21T09:35:11.335Z,24
2018-05-21T09:36:20.306Z,36
2018-05-21T09:37:29.329Z,40
2018-05-21T09:38:38.758Z,44
2018-05-21T09:39:47.971Z,44
2018-05-21T09:40:57.536Z,40
2018-05-21T09:42:07.320Z,44
2018-05-21T09:43:16.591Z,40
2018-05-21T09:44:25.769Z,36
2018-05-21T09:45:34.962Z,32
2018-05-21T09:46:44.382Z,40
2018-05-21T09:47:53.876Z,44
2018-05-21T09:49:03.581Z,32
2018-05-21T09:50:12.749Z,24
2018-05-21T09:51:22.710Z,20
2018-05-21T09:52:31.607Z,12
2018-05-21T09:53:40.805Z,16
2018-05-21T09:54:50.476Z,24
2018-05-21T09:55:59.661Z,24
2018-05-21T09:57:08.824Z,20
2018-05-21T09:58:18.251Z,24
2018-05-21T09:59:26.912Z,28
2018-05-21T10:00:36.586Z,24
2018-05-21T10:01:46.292Z,24
2018-05-21T10:02:56.233Z,20
2018-05-21T10:04:05.681Z,20
2018-05-21T10:05:14.338Z,16
2018-05-21T10:06:24.290Z,20
2018-05-21T10:07:33.491Z,16
2018-05-21T10:08:42.691Z,16
2018-05-21T10:09:51.852Z,20
2018-05-21T10:11:02.065Z,16
2018-05-21T10:12:12.622Z,16
2018-05-21T10:13:22.742Z,20
2018-05-21T10:14:33.628Z,28
2018-05-21T10:15:43.903Z,16
2018-05-21T10:16:53.609Z,12
2018-05-21T10:18:04.461Z,12
2018-05-21T10:19:14.430Z,12
2018-05-21T10:20:23.609Z,16
2018-05-21T10:21:33.076Z,16
2018-05-21T10:22:42.299Z,16
2018-05-21T10:23:51.234Z,16
2018-05-21T10:25:00.727Z,28
2018-05-21T10:26:11.038Z,28
2018-05-21T10:27:20.615Z,28
2018-05-21T10:28:29.849Z,28
2018-05-21T10:29:39.011Z,32
2018-05-21T10:30:48.682Z,32
2018-05-21T10:31:58.125Z,28
2018-05-21T10:33:07.848Z,28
2018-05-21T10:34:17.584Z,28
2018-05-21T10:35:27.032Z,32
2018-05-21T10:36:36.557Z,32
2018-05-21T10:37:46.011Z,32
2018-05-21T10:38:55.483Z,32
2018-05-21T10:40:05.171Z,32
2018-05-21T10:41:15.127Z,28
2018-05-21T10:42:25.257Z,28
2018-05-21T10:43:33.927Z,28
2018-05-21T10:44:43.243Z,28
2018-05-21T10:45:52.696Z,8
2018-05-21T10:47:01.907Z,4
2018-05-21T10:48:11.097Z,20
2018-05-21T10:49:20.690Z,20
2018-05-21T10:50:30.274Z,24
2018-05-21T10:51:39.741Z,28
2018-05-21T10:52:49.174Z,24
2018-05-21T10:53:58.673Z,24
2018-05-21T10:55:07.941Z,28
2018-05-21T10:56:17.800Z,24
2018-05-21T10:57:28.006Z,24
2018-05-21T10:58:37.820Z,24
2018-05-21T10:59:47.508Z,28
2018-05-21T11:00:57.223Z,24
2018-05-21T11:02:06.897Z,24
2018-05-21T11:03:16.372Z,24
2018-05-21T11:04:26.310Z,28
2018-05-21T11:05:35.766Z,28
2018-05-21T11:06:44.966Z,24
2018-05-21T11:07:54.683Z,24
2018-05-21T11:09:03.866Z,24
2018-05-21T11:10:13.043Z,20
2018-05-21T11:11:22.518Z,20
2018-05-21T11:12:32.252Z,24
2018-05-21T11:13:42.246Z,24
2018-05-21T11:14:51.965Z,20
2018-05-21T11:16:01.407Z,20
2018-05-21T11:17:11.392Z,20
2018-05-21T11:18:20.569Z,20
2018-05-21T11:19:30.021Z,20
2018-05-21T11:20:39.985Z,20
2018-05-21T11:21:49.410Z,24
2018-05-21T11:22:59.364Z,24
2018-05-21T11:24:08.873Z,24
2018-05-21T11:25:18.333Z,24
2018-05-21T11:26:27.773Z,24
2018-05-21T11:27:37.191Z,20
2018-05-21T11:28:46.363Z,20
2018-05-21T11:29:56.052Z,24
2018-05-21T11:31:05.486Z,20
2018-05-21T11:32:15.178Z,24
2018-05-21T11:33:24.607Z,20
2018-05-21T11:34:34.362Z,24
2018-05-21T11:35:44.041Z,20
2018-05-21T11:36:53.712Z,20
2018-05-21T11:38:03.141Z,24
2018-05-21T11:39:12.832Z,20
2018-05-21T11:40:22.549Z,24
2018-05-21T11:41:31.992Z,24
2018-05-21T11:42:41.736Z,20
2018-05-21T11:43:50.643Z,24
2018-05-21T11:44:59.813Z,20
2018-05-21T11:46:08.806Z,24
2018-05-21T11:47:18.531Z,24
2018-05-21T11:48:28.240Z,24
2018-05-21T11:49:37.950Z,24
2018-05-21T11:50:47.987Z,24
2018-05-21T11:51:57.183Z,24
2018-05-21T11:53:06.890Z,24
2018-05-21T11:54:16.067Z,28
2018-05-21T11:55:25.293Z,24
2018-05-21T11:56:35.018Z,24
2018-05-21T11:57:44.452Z,28
2018-05-21T11:58:53.921Z,24
2018-05-21T12:00:03.452Z,24
2018-05-21T12:01:12.945Z,24
2018-05-21T12:02:22.170Z,24
2018-05-21T12:03:31.639Z,24
2018-05-21T12:04:41.087Z,28
2018-05-21T12:05:50.345Z,28
2018-05-21T12:06:59.532Z,24
2018-05-21T12:08:08.733Z,28
2018-05-21T12:09:18.478Z,24
2018-05-21T12:10:27.410Z,24
2018-05-21T12:11:36.628Z,28
2018-05-21T12:12:46.811Z,24
2018-05-21T12:13:56.581Z,28
2018-05-21T12:15:05.786Z,28
2018-05-21T12:16:15.059Z,28
2018-05-21T12:17:24.012Z,28
2018-05-21T12:18:33.769Z,28
2018-05-21T12:19:43.497Z,16
2018-05-21T12:20:52.965Z,20
2018-05-21T12:22:02.682Z,24
2018-05-21T12:23:12.141Z,28
2018-05-21T12:24:21.873Z,20
2018-05-21T12:25:31.472Z,24
2018-05-21T12:26:40.942Z,16
2018-05-21T12:27:50.370Z,24
2018-05-21T12:28:59.286Z,24
2018-05-21T12:30:08.749Z,20
2018-05-21T12:31:18.460Z,20
2018-05-21T12:32:27.901Z,28
2018-05-21T12:33:36.575Z,20
2018-05-21T12:34:45.542Z,32
2018-05-21T12:35:55.359Z,28
2018-05-21T12:37:04.392Z,24
2018-05-21T12:38:14.150Z,16
2018-05-21T12:39:23.758Z,32
2018-05-21T12:40:33.223Z,36
2018-05-21T12:41:42.915Z,36
2018-05-21T12:42:52.375Z,40
2018-05-21T12:44:01.833Z,28
2018-05-21T12:45:11.333Z,28
2018-05-21T12:46:20.767Z,32
2018-05-21T12:47:29.706Z,40
2018-05-21T12:48:39.173Z,40
2018-05-21T12:49:48.414Z,36
2018-05-21T12:50:58.099Z,40
2018-05-21T12:52:07.260Z,40
2018-05-21T12:53:16.228Z,28
2018-05-21T12:54:25.441Z,28
2018-05-21T12:55:34.645Z,44
2018-05-21T12:56:43.880Z,48
2018-05-21T12:57:53.108Z,20
2018-05-21T12:59:02.795Z,36
2018-05-21T13:00:11.459Z,32
2018-05-21T13:01:20.902Z,40
2018-05-21T13:02:30.075Z,48
2018-05-21T13:03:39.543Z,52
2018-05-21T13:04:48.472Z,48
2018-05-21T13:05:57.656Z,20
2018-05-21T13:07:06.896Z,40
2018-05-21T13:08:16.357Z,32
2018-05-21T13:09:25.820Z,28
2018-05-21T13:10:34.737Z,28
2018-05-21T13:11:44.493Z,40
2018-05-21T13:12:53.964Z,40
2018-05-21T13:14:03.177Z,24
2018-05-21T13:15:12.750Z,16
2018-05-21T13:16:21.950Z,28
2018-05-21T13:17:31.748Z,20
2018-05-21T13:18:40.652Z,20
2018-05-21T13:19:50.388Z,24
2018-05-21T13:21:00.094Z,28
2018-05-21T13:22:09.796Z,32
2018-05-21T13:23:19.505Z,32
2018-05-21T13:24:29.352Z,40
2018-05-21T13:25:38.793Z,48
2018-05-21T13:26:48.243Z,44
2018-05-21T13:27:57.691Z,40
2018-05-21T13:29:06.692Z,44
2018-05-21T13:30:16.432Z,40
2018-05-21T13:31:25.894Z,36
2018-05-21T13:32:35.088Z,24
2018-05-21T13:33:44.562Z,40
2018-05-21T13:34:54.532Z,40
2018-05-21T13:36:03.462Z,44
2018-05-21T13:37:12.888Z,44
2018-05-21T13:38:22.358Z,32
2018-05-21T13:39:31.270Z,56
2018-05-21T13:40:40.733Z,64
2018-05-21T13:41:50.229Z,56
2018-05-21T13:42:59.928Z,44
2018-05-21T13:44:09.916Z,48
2018-05-21T13:45:19.652Z,60
2018-05-21T13:46:29.354Z,48
2018-05-21T13:47:39.320Z,48
2018-05-21T13:48:49.034Z,52
2018-05-21T13:49:58.487Z,52
2018-05-21T13:51:07.926Z,48
2018-05-21T13:52:18.236Z,44
2018-05-21T13:53:27.357Z,44
2018-05-21T13:54:36.784Z,40
2018-05-21T13:55:46.529Z,36
2018-05-21T13:56:55.985Z,36
2018-05-21T13:58:05.173Z,32
2018-05-21T13:59:14.070Z,24
2018-05-21T14:00:23.248Z,24
2018-05-21T14:01:32.459Z,36
2018-05-21T14:02:41.629Z,32
2018-05-21T14:03:50.591Z,40
2018-05-21T14:05:00.010Z,32
2018-05-21T14:06:09.691Z,32
2018-05-21T14:07:18.866Z,24
2018-05-21T14:08:27.761Z,24
2018-05-21T14:09:37.442Z,20
2018-05-21T14:10:47.137Z,32
2018-05-21T14:11:56.585Z,28
2018-05-21T14:13:06.271Z,28
2018-05-21T14:14:15.959Z,36
2018-05-21T14:15:25.654Z,24
2018-05-21T14:16:35.076Z,20
2018-05-21T14:17:44.755Z,24
2018-05-21T14:18:54.166Z,24
2018-05-21T14:20:03.323Z,28
2018-05-21T14:21:12.474Z,32
2018-05-21T14:22:21.683Z,40
2018-05-21T14:23:31.379Z,20
2018-05-21T14:24:40.545Z,16
2018-05-21T14:25:49.789Z,20
2018-05-21T14:26:59.459Z,24
2018-05-21T14:28:08.390Z,24
2018-05-21T14:29:17.827Z,24
2018-05-21T14:30:26.985Z,36
2018-05-21T14:31:36.654Z,44
2018-05-21T14:32:45.803Z,40
2018-05-21T14:33:55.243Z,36
2018-05-21T14:35:04.413Z,36
2018-05-21T14:36:14.137Z,32
2018-05-21T14:37:23.329Z,32
2018-05-21T14:38:32.817Z,20
2018-05-21T14:39:42.302Z,20
2018-05-21T14:40:52.237Z,20
2018-05-21T14:42:01.663Z,20
2018-05-21T14:43:11.649Z,16
2018-05-21T14:44:21.363Z,16
2018-05-21T14:45:30.276Z,24
2018-05-21T14:46:40.000Z,24
2018-05-21T14:47:49.158Z,28
2018-05-21T14:48:58.602Z,36
2018-05-21T14:50:08.339Z,36
2018-05-21T14:51:18.025Z,36
2018-05-21T14:52:27.978Z,36
2018-05-21T14:53:37.940Z,36
2018-05-21T14:54:47.451Z,28
2018-05-21T14:55:56.661Z,32
2018-05-21T14:57:05.832Z,32
2018-05-21T14:58:15.017Z,16
2018-05-21T14:59:24.510Z,16
2018-05-21T15:00:33.987Z,16
2018-05-21T15:01:43.168Z,16
2018-05-21T15:02:52.091Z,16
2018-05-21T15:04:02.042Z,12
2018-05-21T15:05:11.815Z,16
2018-05-21T15:06:21.502Z,16
2018-05-21T15:07:31.179Z,16
2018-05-21T15:08:40.135Z,12
2018-05-21T15:09:49.334Z,16
2018-05-21T15:10:58.531Z,16
2018-05-21T15:12:07.679Z,16
2018-05-21T15:13:16.869Z,16
2018-05-21T15:14:26.318Z,20
2018-05-21T15:15:36.080Z,16
2018-05-21T15:16:45.796Z,16
2018-05-21T15:17:55.733Z,16
2018-05-21T15:19:05.255Z,12
2018-05-21T15:20:14.704Z,12
2018-05-21T15:21:24.708Z,16
2018-05-21T15:22:34.594Z,16
2018-05-21T15:23:43.833Z,16
2018-05-21T15:24:53.010Z,12
2018-05-21T15:26:02.950Z,12
2018-05-21T15:27:12.193Z,12
2018-05-21T15:28:21.799Z,12
2018-05-21T15:29:30.995Z,12
2018-05-21T15:30:40.688Z,12
2018-05-21T15:31:49.848Z,8
2018-05-21T15:32:59.029Z,12
2018-05-21T15:34:08.466Z,12
2018-05-21T15:35:17.374Z,12
2018-05-21T15:36:26.551Z,12
2018-05-21T15:37:35.761Z,12
2018-05-21T15:38:45.964Z,12
2018-05-21T15:39:55.141Z,8
2018-05-21T15:41:04.305Z,8
2018-05-21T15:42:14.011Z,12
2018-05-21T15:43:24.043Z,8
2018-05-21T15:44:34.254Z,8
2018-05-21T15:45:43.467Z,8
2018-05-21T15:46:53.475Z,8
2018-05-21T15:48:02.659Z,8
2018-05-21T15:49:12.392Z,12
2018-05-21T15:50:21.643Z,8
2018-05-21T15:51:31.153Z,8
2018-05-21T15:52:40.360Z,8
2018-05-21T15:53:50.042Z,8
2018-05-21T15:54:59.792Z,8
2018-05-21T15:56:09.269Z,12
2018-05-21T15:57:18.194Z,12
2018-05-21T15:58:27.699Z,8
2018-05-21T15:59:36.973Z,8
2018-05-21T16:00:46.164Z,8
2018-05-21T16:01:55.587Z,8
2018-05-21T16:03:04.794Z,8
2018-05-21T16:04:14.494Z,12
2018-05-21T16:05:24.188Z,8
2018-05-21T16:06:33.775Z,8
2018-05-21T16:07:43.561Z,8
2018-05-21T16:08:52.885Z,4
2018-05-21T16:10:02.091Z,4
2018-05-21T16:11:11.172Z,4
2018-05-21T16:12:20.161Z,8
2018-05-21T16:13:29.449Z,8
2018-05-21T16:14:38.904Z,4
2018-05-21T16:15:48.905Z,4
2018-05-21T16:16:59.490Z,8
2018-05-21T16:18:09.061Z,8
2018-05-21T16:19:18.233Z,8
2018-05-21T16:20:27.912Z,8
2018-05-21T16:21:37.377Z,8
2018-05-21T16:22:46.591Z,8
2018-05-21T16:23:56.301Z,8
2018-05-21T16:25:05.731Z,8
2018-05-21T16:26:14.682Z,8
2018-05-21T16:27:24.375Z,12
2018-05-21T16:28:34.113Z,8
2018-05-21T16:29:43.562Z,8
2018-05-21T16:30:52.997Z,8
2018-05-21T16:32:02.675Z,8
2018-05-21T16:33:11.851Z,12
2018-05-21T16:34:21.374Z,12
2018-05-21T16:35:31.395Z,8
2018-05-21T16:36:41.010Z,8
2018-05-21T16:37:49.724Z,8
2018-05-21T16:38:59.168Z,8
2018-05-21T16:40:08.868Z,8
2018-05-21T16:41:18.307Z,12
2018-05-21T16:42:27.761Z,8
2018-05-21T16:43:37.188Z,8
2018-05-21T16:44:46.104Z,12
2018-05-21T16:45:55.531Z,12
2018-05-21T16:47:04.952Z,12